sensor_id;sensor_type;location;lat;lon;timestamp;P1;durP1;ratioP1;P2;durP2;ratioP2
47555;SDS011;33291;46.222;26.460;2024-03-22T00:01:53;16.77;;;9.93;;
47555;SDS011;33291;46.222;26.460;2024-03-22T00:04:20;13.07;;;8.35;;
47555;SDS011;33291;46.222;26.460;2024-03-22T00:06:46;19.67;;;9.88;;
47555;SDS011;33291;46.222;26.460;2024-03-22T00:09:13;18.13;;;9.23;;
47555;SDS011;33291;46.222;26.460;2024-03-22T00:11:40;12.30;;;7.82;;
47555;SDS011;33291;46.222;26.460;2024-03-22T00:14:07;14.77;;;8.05;;
47555;SDS011;33291;46.222;26.460;2024-03-22T00:16:33;15.23;;;7.13;;
47555;SDS011;33291;46.222;26.460;2024-03-22T00:18:58;13.05;;;7.47;;
47555;SDS011;33291;46.222;26.460;2024-03-22T00:21:24;11.75;;;5.80;;
47555;SDS011;33291;46.222;26.460;2024-03-22T00:23:50;10.73;;;6.18;;
47555;SDS011;33291;46.222;26.460;2024-03-22T00:26:16;12.82;;;7.82;;
47555;SDS011;33291;46.222;26.460;2024-03-22T00:28:42;13.35;;;7.88;;
47555;SDS011;33291;46.222;26.460;2024-03-22T00:31:08;9.63;;;6.47;;
47555;SDS011;33291;46.222;26.460;2024-03-22T00:33:34;11.65;;;6.53;;
47555;SDS011;33291;46.222;26.460;2024-03-22T00:36:00;9.60;;;5.90;;
47555;SDS011;33291;46.222;26.460;2024-03-22T00:38:25;8.98;;;6.18;;
47555;SDS011;33291;46.222;26.460;2024-03-22T00:40:51;14.25;;;6.75;;
47555;SDS011;33291;46.222;26.460;2024-03-22T00:43:17;11.07;;;6.15;;
47555;SDS011;33291;46.222;26.460;2024-03-22T00:45:42;12.25;;;5.68;;
47555;SDS011;33291;46.222;26.460;2024-03-22T00:48:08;8.15;;;5.28;;
47555;SDS011;33291;46.222;26.460;2024-03-22T00:50:34;11.32;;;6.10;;
47555;SDS011;33291;46.222;26.460;2024-03-22T00:53:00;8.02;;;4.55;;
47555;SDS011;33291;46.222;26.460;2024-03-22T00:55:28;11.98;;;5.72;;
47555;SDS011;33291;46.222;26.460;2024-03-22T00:57:54;9.30;;;5.35;;
47555;SDS011;33291;46.222;26.460;2024-03-22T01:00:20;9.40;;;6.03;;
47555;SDS011;33291;46.222;26.460;2024-03-22T01:02:45;11.50;;;6.70;;
47555;SDS011;33291;46.222;26.460;2024-03-22T01:05:11;12.40;;;7.38;;
47555;SDS011;33291;46.222;26.460;2024-03-22T01:07:37;12.75;;;7.65;;
47555;SDS011;33291;46.222;26.460;2024-03-22T01:10:03;12.80;;;7.20;;
47555;SDS011;33291;46.222;26.460;2024-03-22T01:12:29;12.65;;;7.47;;
47555;SDS011;33291;46.222;26.460;2024-03-22T01:14:56;11.80;;;7.15;;
47555;SDS011;33291;46.222;26.460;2024-03-22T01:17:22;12.52;;;6.90;;
47555;SDS011;33291;46.222;26.460;2024-03-22T01:19:47;15.20;;;7.60;;
47555;SDS011;33291;46.222;26.460;2024-03-22T01:22:13;12.90;;;8.30;;
47555;SDS011;33291;46.222;26.460;2024-03-22T01:24:39;10.75;;;6.75;;
47555;SDS011;33291;46.222;26.460;2024-03-22T01:27:05;11.88;;;6.70;;
47555;SDS011;33291;46.222;26.460;2024-03-22T01:29:30;14.00;;;7.53;;
47555;SDS011;33291;46.222;26.460;2024-03-22T01:31:59;11.68;;;6.32;;
47555;SDS011;33291;46.222;26.460;2024-03-22T01:34:25;13.30;;;7.07;;
47555;SDS011;33291;46.222;26.460;2024-03-22T01:36:51;13.95;;;7.38;;
47555;SDS011;33291;46.222;26.460;2024-03-22T01:39:18;16.00;;;7.15;;
47555;SDS011;33291;46.222;26.460;2024-03-22T01:41:46;12.30;;;7.03;;
47555;SDS011;33291;46.222;26.460;2024-03-22T01:44:12;13.43;;;7.55;;
47555;SDS011;33291;46.222;26.460;2024-03-22T01:46:39;13.13;;;8.35;;
47555;SDS011;33291;46.222;26.460;2024-03-22T01:49:05;13.40;;;6.75;;
47555;SDS011;33291;46.222;26.460;2024-03-22T01:51:33;15.45;;;7.55;;
47555;SDS011;33291;46.222;26.460;2024-03-22T01:53:59;9.55;;;5.80;;
47555;SDS011;33291;46.222;26.460;2024-03-22T01:56:27;14.05;;;7.80;;
47555;SDS011;33291;46.222;26.460;2024-03-22T01:58:53;11.65;;;7.15;;
47555;SDS011;33291;46.222;26.460;2024-03-22T02:01:20;17.38;;;6.82;;
47555;SDS011;33291;46.222;26.460;2024-03-22T02:03:46;17.45;;;8.60;;
47555;SDS011;33291;46.222;26.460;2024-03-22T02:06:11;13.95;;;8.30;;
47555;SDS011;33291;46.222;26.460;2024-03-22T02:08:37;27.75;;;13.45;;
47555;SDS011;33291;46.222;26.460;2024-03-22T02:11:05;21.52;;;10.38;;
47555;SDS011;33291;46.222;26.460;2024-03-22T02:13:31;16.45;;;9.85;;
47555;SDS011;33291;46.222;26.460;2024-03-22T02:15:57;14.93;;;8.23;;
47555;SDS011;33291;46.222;26.460;2024-03-22T02:18:22;14.90;;;8.48;;
47555;SDS011;33291;46.222;26.460;2024-03-22T02:20:48;22.02;;;11.55;;
47555;SDS011;33291;46.222;26.460;2024-03-22T02:23:14;21.65;;;11.68;;
47555;SDS011;33291;46.222;26.460;2024-03-22T02:25:39;22.35;;;11.55;;
47555;SDS011;33291;46.222;26.460;2024-03-22T02:28:05;23.90;;;10.88;;
47555;SDS011;33291;46.222;26.460;2024-03-22T02:30:30;15.55;;;9.70;;
47555;SDS011;33291;46.222;26.460;2024-03-22T02:32:56;14.88;;;8.82;;
47555;SDS011;33291;46.222;26.460;2024-03-22T02:35:22;17.75;;;10.25;;
47555;SDS011;33291;46.222;26.460;2024-03-22T02:37:47;10.30;;;6.70;;
47555;SDS011;33291;46.222;26.460;2024-03-22T02:40:13;9.85;;;6.60;;
47555;SDS011;33291;46.222;26.460;2024-03-22T02:42:38;10.40;;;6.40;;
47555;SDS011;33291;46.222;26.460;2024-03-22T02:45:04;13.57;;;7.65;;
47555;SDS011;33291;46.222;26.460;2024-03-22T02:47:30;15.57;;;7.85;;
47555;SDS011;33291;46.222;26.460;2024-03-22T02:49:55;13.63;;;7.03;;
47555;SDS011;33291;46.222;26.460;2024-03-22T02:52:21;13.27;;;7.03;;
47555;SDS011;33291;46.222;26.460;2024-03-22T02:54:47;13.57;;;7.28;;
47555;SDS011;33291;46.222;26.460;2024-03-22T02:57:12;11.30;;;6.78;;
47555;SDS011;33291;46.222;26.460;2024-03-22T02:59:38;19.98;;;8.88;;
47555;SDS011;33291;46.222;26.460;2024-03-22T03:02:03;14.80;;;9.20;;
47555;SDS011;33291;46.222;26.460;2024-03-22T03:04:29;17.45;;;9.55;;
47555;SDS011;33291;46.222;26.460;2024-03-22T03:06:55;12.95;;;6.97;;
47555;SDS011;33291;46.222;26.460;2024-03-22T03:09:21;11.45;;;8.00;;
47555;SDS011;33291;46.222;26.460;2024-03-22T03:11:46;10.75;;;6.43;;
47555;SDS011;33291;46.222;26.460;2024-03-22T03:14:12;11.98;;;6.95;;
47555;SDS011;33291;46.222;26.460;2024-03-22T03:16:37;14.32;;;6.85;;
47555;SDS011;33291;46.222;26.460;2024-03-22T03:19:03;10.27;;;6.30;;
47555;SDS011;33291;46.222;26.460;2024-03-22T03:21:29;17.25;;;8.98;;
47555;SDS011;33291;46.222;26.460;2024-03-22T03:23:54;15.50;;;7.93;;
47555;SDS011;33291;46.222;26.460;2024-03-22T03:26:20;12.93;;;7.40;;
47555;SDS011;33291;46.222;26.460;2024-03-22T03:28:45;10.40;;;6.65;;
47555;SDS011;33291;46.222;26.460;2024-03-22T03:31:11;24.98;;;15.45;;
47555;SDS011;33291;46.222;26.460;2024-03-22T03:33:37;17.92;;;9.70;;
47555;SDS011;33291;46.222;26.460;2024-03-22T03:36:02;11.63;;;7.25;;
47555;SDS011;33291;46.222;26.460;2024-03-22T03:38:28;13.68;;;7.88;;
47555;SDS011;33291;46.222;26.460;2024-03-22T03:40:54;11.88;;;6.75;;
47555;SDS011;33291;46.222;26.460;2024-03-22T03:43:19;14.32;;;7.10;;
47555;SDS011;33291;46.222;26.460;2024-03-22T03:45:45;9.13;;;6.03;;
47555;SDS011;33291;46.222;26.460;2024-03-22T03:48:10;9.82;;;6.18;;
47555;SDS011;33291;46.222;26.460;2024-03-22T03:50:36;8.90;;;5.38;;
47555;SDS011;33291;46.222;26.460;2024-03-22T03:53:02;9.65;;;6.03;;
47555;SDS011;33291;46.222;26.460;2024-03-22T03:55:27;11.30;;;5.82;;
47555;SDS011;33291;46.222;26.460;2024-03-22T03:57:53;7.97;;;5.38;;
47555;SDS011;33291;46.222;26.460;2024-03-22T04:00:19;11.98;;;5.60;;
47555;SDS011;33291;46.222;26.460;2024-03-22T04:02:45;9.82;;;6.10;;
47555;SDS011;33291;46.222;26.460;2024-03-22T04:05:11;11.07;;;6.60;;
47555;SDS011;33291;46.222;26.460;2024-03-22T04:07:36;10.48;;;6.65;;
47555;SDS011;33291;46.222;26.460;2024-03-22T04:10:04;24.33;;;11.57;;
47555;SDS011;33291;46.222;26.460;2024-03-22T04:12:31;17.88;;;9.68;;
47555;SDS011;33291;46.222;26.460;2024-03-22T04:14:56;10.73;;;6.72;;
47555;SDS011;33291;46.222;26.460;2024-03-22T04:17:22;13.60;;;7.32;;
47555;SDS011;33291;46.222;26.460;2024-03-22T04:19:49;15.55;;;7.20;;
47555;SDS011;33291;46.222;26.460;2024-03-22T04:22:14;12.73;;;7.28;;
47555;SDS011;33291;46.222;26.460;2024-03-22T04:24:40;11.25;;;7.03;;
47555;SDS011;33291;46.222;26.460;2024-03-22T04:27:06;12.10;;;7.45;;
47555;SDS011;33291;46.222;26.460;2024-03-22T04:29:32;9.77;;;6.38;;
47555;SDS011;33291;46.222;26.460;2024-03-22T04:31:58;10.93;;;7.10;;
47555;SDS011;33291;46.222;26.460;2024-03-22T04:34:23;14.65;;;9.35;;
47555;SDS011;33291;46.222;26.460;2024-03-22T04:36:50;13.55;;;7.72;;
47555;SDS011;33291;46.222;26.460;2024-03-22T04:39:17;23.80;;;14.10;;
47555;SDS011;33291;46.222;26.460;2024-03-22T04:41:44;15.23;;;6.78;;
47555;SDS011;33291;46.222;26.460;2024-03-22T04:44:10;10.63;;;5.95;;
47555;SDS011;33291;46.222;26.460;2024-03-22T04:46:35;8.88;;;4.93;;
47555;SDS011;33291;46.222;26.460;2024-03-22T04:49:01;9.43;;;5.75;;
47555;SDS011;33291;46.222;26.460;2024-03-22T04:51:26;15.52;;;9.15;;
47555;SDS011;33291;46.222;26.460;2024-03-22T04:53:52;20.77;;;8.25;;
47555;SDS011;33291;46.222;26.460;2024-03-22T04:56:18;15.00;;;8.02;;
47555;SDS011;33291;46.222;26.460;2024-03-22T04:58:43;11.90;;;7.28;;
47555;SDS011;33291;46.222;26.460;2024-03-22T05:01:09;10.68;;;6.18;;
47555;SDS011;33291;46.222;26.460;2024-03-22T05:03:36;9.43;;;5.55;;
47555;SDS011;33291;46.222;26.460;2024-03-22T05:06:02;10.70;;;5.63;;
47555;SDS011;33291;46.222;26.460;2024-03-22T05:08:28;8.60;;;5.80;;
47555;SDS011;33291;46.222;26.460;2024-03-22T05:10:54;11.32;;;6.57;;
47555;SDS011;33291;46.222;26.460;2024-03-22T05:13:19;8.18;;;5.95;;
47555;SDS011;33291;46.222;26.460;2024-03-22T05:15:46;12.57;;;5.85;;
47555;SDS011;33291;46.222;26.460;2024-03-22T05:18:12;14.85;;;6.18;;
47555;SDS011;33291;46.222;26.460;2024-03-22T05:20:37;9.40;;;5.72;;
47555;SDS011;33291;46.222;26.460;2024-03-22T05:23:03;10.88;;;6.28;;
47555;SDS011;33291;46.222;26.460;2024-03-22T05:25:29;10.57;;;6.35;;
47555;SDS011;33291;46.222;26.460;2024-03-22T05:27:54;15.32;;;6.63;;
47555;SDS011;33291;46.222;26.460;2024-03-22T05:30:20;10.27;;;6.03;;
47555;SDS011;33291;46.222;26.460;2024-03-22T05:32:47;13.45;;;5.85;;
47555;SDS011;33291;46.222;26.460;2024-03-22T05:35:15;10.50;;;6.30;;
47555;SDS011;33291;46.222;26.460;2024-03-22T05:37:40;10.18;;;5.95;;
47555;SDS011;33291;46.222;26.460;2024-03-22T05:40:06;10.20;;;5.82;;
47555;SDS011;33291;46.222;26.460;2024-03-22T05:42:33;11.27;;;6.65;;
47555;SDS011;33291;46.222;26.460;2024-03-22T05:44:59;9.95;;;6.10;;
47555;SDS011;33291;46.222;26.460;2024-03-22T05:47:25;9.63;;;5.78;;
47555;SDS011;33291;46.222;26.460;2024-03-22T05:49:51;10.18;;;6.47;;
47555;SDS011;33291;46.222;26.460;2024-03-22T05:52:17;9.20;;;5.57;;
47555;SDS011;33291;46.222;26.460;2024-03-22T05:54:43;9.57;;;5.90;;
47555;SDS011;33291;46.222;26.460;2024-03-22T05:57:09;7.97;;;5.00;;
47555;SDS011;33291;46.222;26.460;2024-03-22T05:59:35;8.80;;;5.70;;
47555;SDS011;33291;46.222;26.460;2024-03-22T06:02:01;8.52;;;4.95;;
47555;SDS011;33291;46.222;26.460;2024-03-22T06:04:27;7.20;;;4.88;;
47555;SDS011;33291;46.222;26.460;2024-03-22T06:06:52;12.25;;;7.25;;
47555;SDS011;33291;46.222;26.460;2024-03-22T06:09:18;12.68;;;8.02;;
47555;SDS011;33291;46.222;26.460;2024-03-22T06:11:52;14.68;;;8.65;;
47555;SDS011;33291;46.222;26.460;2024-03-22T06:14:18;20.00;;;11.18;;
47555;SDS011;33291;46.222;26.460;2024-03-22T06:16:43;16.88;;;8.85;;
47555;SDS011;33291;46.222;26.460;2024-03-22T06:19:09;17.48;;;7.07;;
47555;SDS011;33291;46.222;26.460;2024-03-22T06:21:35;16.17;;;7.72;;
47555;SDS011;33291;46.222;26.460;2024-03-22T06:24:00;13.15;;;7.57;;
47555;SDS011;33291;46.222;26.460;2024-03-22T06:26:26;13.10;;;7.50;;
47555;SDS011;33291;46.222;26.460;2024-03-22T06:28:52;11.45;;;5.63;;
47555;SDS011;33291;46.222;26.460;2024-03-22T06:31:17;21.67;;;11.32;;
47555;SDS011;33291;46.222;26.460;2024-03-22T06:33:43;9.18;;;4.72;;
47555;SDS011;33291;46.222;26.460;2024-03-22T06:36:09;7.53;;;4.72;;
47555;SDS011;33291;46.222;26.460;2024-03-22T06:38:34;7.20;;;4.18;;
47555;SDS011;33291;46.222;26.460;2024-03-22T06:41:00;25.35;;;11.65;;
47555;SDS011;33291;46.222;26.460;2024-03-22T06:43:26;37.92;;;16.10;;
47555;SDS011;33291;46.222;26.460;2024-03-22T06:45:51;14.32;;;7.50;;
47555;SDS011;33291;46.222;26.460;2024-03-22T06:48:17;9.93;;;5.45;;
47555;SDS011;33291;46.222;26.460;2024-03-22T06:50:43;7.40;;;4.75;;
47555;SDS011;33291;46.222;26.460;2024-03-22T06:53:08;8.52;;;5.00;;
47555;SDS011;33291;46.222;26.460;2024-03-22T06:55:37;12.07;;;5.10;;
47555;SDS011;33291;46.222;26.460;2024-03-22T06:58:03;7.72;;;4.93;;
47555;SDS011;33291;46.222;26.460;2024-03-22T07:00:28;6.78;;;4.18;;
47555;SDS011;33291;46.222;26.460;2024-03-22T07:02:54;12.18;;;7.03;;
47555;SDS011;33291;46.222;26.460;2024-03-22T07:05:25;11.70;;;5.18;;
47555;SDS011;33291;46.222;26.460;2024-03-22T07:07:50;12.32;;;6.82;;
47555;SDS011;33291;46.222;26.460;2024-03-22T07:10:18;20.40;;;9.05;;
47555;SDS011;33291;46.222;26.460;2024-03-22T07:12:44;18.90;;;9.32;;
47555;SDS011;33291;46.222;26.460;2024-03-22T07:15:10;34.30;;;13.50;;
47555;SDS011;33291;46.222;26.460;2024-03-22T07:17:35;13.43;;;6.25;;
47555;SDS011;33291;46.222;26.460;2024-03-22T07:20:01;46.78;;;22.10;;
47555;SDS011;33291;46.222;26.460;2024-03-22T07:22:27;20.60;;;9.95;;
47555;SDS011;33291;46.222;26.460;2024-03-22T07:24:53;27.50;;;10.80;;
47555;SDS011;33291;46.222;26.460;2024-03-22T07:27:20;17.27;;;8.90;;
47555;SDS011;33291;46.222;26.460;2024-03-22T07:29:46;20.55;;;11.23;;
47555;SDS011;33291;46.222;26.460;2024-03-22T07:32:11;18.13;;;11.07;;
47555;SDS011;33291;46.222;26.460;2024-03-22T07:34:37;14.75;;;5.78;;
47555;SDS011;33291;46.222;26.460;2024-03-22T07:37:03;15.45;;;7.53;;
47555;SDS011;33291;46.222;26.460;2024-03-22T07:39:29;34.33;;;19.83;;
47555;SDS011;33291;46.222;26.460;2024-03-22T07:41:55;14.13;;;7.82;;
47555;SDS011;33291;46.222;26.460;2024-03-22T07:44:20;10.07;;;5.85;;
47555;SDS011;33291;46.222;26.460;2024-03-22T07:46:49;11.90;;;4.30;;
47555;SDS011;33291;46.222;26.460;2024-03-22T07:49:14;6.88;;;4.20;;
47555;SDS011;33291;46.222;26.460;2024-03-22T07:51:40;6.38;;;4.22;;
47555;SDS011;33291;46.222;26.460;2024-03-22T07:54:06;7.63;;;4.50;;
47555;SDS011;33291;46.222;26.460;2024-03-22T07:56:31;5.70;;;3.70;;
47555;SDS011;33291;46.222;26.460;2024-03-22T07:58:57;7.50;;;4.05;;
47555;SDS011;33291;46.222;26.460;2024-03-22T08:01:23;5.18;;;3.42;;
47555;SDS011;33291;46.222;26.460;2024-03-22T08:03:49;13.55;;;4.32;;
47555;SDS011;33291;46.222;26.460;2024-03-22T08:06:16;6.70;;;3.70;;
47555;SDS011;33291;46.222;26.460;2024-03-22T08:08:42;7.65;;;4.13;;
47555;SDS011;33291;46.222;26.460;2024-03-22T08:11:08;9.52;;;3.72;;
47555;SDS011;33291;46.222;26.460;2024-03-22T08:13:34;6.32;;;3.55;;
47555;SDS011;33291;46.222;26.460;2024-03-22T08:16:00;9.70;;;3.72;;
47555;SDS011;33291;46.222;26.460;2024-03-22T08:18:26;3.70;;;2.63;;
47555;SDS011;33291;46.222;26.460;2024-03-22T08:20:52;4.68;;;3.22;;
47555;SDS011;33291;46.222;26.460;2024-03-22T08:23:17;6.50;;;4.13;;
47555;SDS011;33291;46.222;26.460;2024-03-22T08:25:45;6.07;;;3.00;;
47555;SDS011;33291;46.222;26.460;2024-03-22T08:28:11;6.80;;;3.65;;
47555;SDS011;33291;46.222;26.460;2024-03-22T08:30:39;6.63;;;3.72;;
47555;SDS011;33291;46.222;26.460;2024-03-22T08:33:05;6.60;;;3.10;;
47555;SDS011;33291;46.222;26.460;2024-03-22T08:35:30;7.13;;;3.00;;
47555;SDS011;33291;46.222;26.460;2024-03-22T08:37:56;5.82;;;2.95;;
47555;SDS011;33291;46.222;26.460;2024-03-22T08:40:23;4.85;;;3.28;;
47555;SDS011;33291;46.222;26.460;2024-03-22T08:42:49;6.97;;;3.35;;
47555;SDS011;33291;46.222;26.460;2024-03-22T08:45:15;5.63;;;3.35;;
47555;SDS011;33291;46.222;26.460;2024-03-22T08:47:42;8.85;;;3.25;;
47555;SDS011;33291;46.222;26.460;2024-03-22T08:50:08;5.32;;;3.20;;
47555;SDS011;33291;46.222;26.460;2024-03-22T08:52:34;5.32;;;3.67;;
47555;SDS011;33291;46.222;26.460;2024-03-22T08:55:00;4.72;;;2.88;;
47555;SDS011;33291;46.222;26.460;2024-03-22T08:57:26;4.97;;;2.97;;
47555;SDS011;33291;46.222;26.460;2024-03-22T08:59:52;5.65;;;3.20;;
47555;SDS011;33291;46.222;26.460;2024-03-22T09:02:17;5.55;;;3.40;;
47555;SDS011;33291;46.222;26.460;2024-03-22T09:04:43;5.03;;;3.10;;
47555;SDS011;33291;46.222;26.460;2024-03-22T09:07:09;5.03;;;2.88;;
47555;SDS011;33291;46.222;26.460;2024-03-22T09:09:34;6.80;;;3.15;;
47555;SDS011;33291;46.222;26.460;2024-03-22T09:12:00;6.10;;;3.50;;
47555;SDS011;33291;46.222;26.460;2024-03-22T09:14:26;6.15;;;3.13;;
47555;SDS011;33291;46.222;26.460;2024-03-22T09:16:51;4.70;;;3.25;;
47555;SDS011;33291;46.222;26.460;2024-03-22T09:19:17;6.03;;;3.28;;
47555;SDS011;33291;46.222;26.460;2024-03-22T09:21:43;5.63;;;3.40;;
47555;SDS011;33291;46.222;26.460;2024-03-22T09:24:09;5.50;;;3.08;;
47555;SDS011;33291;46.222;26.460;2024-03-22T09:26:35;8.77;;;3.00;;
47555;SDS011;33291;46.222;26.460;2024-03-22T09:29:00;8.55;;;4.53;;
47555;SDS011;33291;46.222;26.460;2024-03-22T09:31:26;4.72;;;2.92;;
47555;SDS011;33291;46.222;26.460;2024-03-22T09:33:52;4.70;;;3.05;;
47555;SDS011;33291;46.222;26.460;2024-03-22T09:36:18;4.60;;;3.05;;
47555;SDS011;33291;46.222;26.460;2024-03-22T09:38:43;5.82;;;3.53;;
47555;SDS011;33291;46.222;26.460;2024-03-22T09:41:09;4.13;;;2.97;;
47555;SDS011;33291;46.222;26.460;2024-03-22T09:43:35;5.65;;;3.30;;
47555;SDS011;33291;46.222;26.460;2024-03-22T09:46:03;6.88;;;3.33;;
47555;SDS011;33291;46.222;26.460;2024-03-22T09:48:30;7.30;;;3.42;;
47555;SDS011;33291;46.222;26.460;2024-03-22T09:50:57;4.57;;;2.58;;
47555;SDS011;33291;46.222;26.460;2024-03-22T09:53:23;4.88;;;2.95;;
47555;SDS011;33291;46.222;26.460;2024-03-22T09:55:52;6.53;;;3.22;;
47555;SDS011;33291;46.222;26.460;2024-03-22T09:58:23;4.72;;;2.97;;
47555;SDS011;33291;46.222;26.460;2024-03-22T10:00:48;7.32;;;4.07;;
47555;SDS011;33291;46.222;26.460;2024-03-22T10:03:14;5.95;;;3.03;;
47555;SDS011;33291;46.222;26.460;2024-03-22T10:05:40;5.75;;;3.08;;
47555;SDS011;33291;46.222;26.460;2024-03-22T10:08:06;4.75;;;3.22;;
47555;SDS011;33291;46.222;26.460;2024-03-22T10:10:32;5.60;;;2.88;;
47555;SDS011;33291;46.222;26.460;2024-03-22T10:13:01;4.82;;;2.92;;
47555;SDS011;33291;46.222;26.460;2024-03-22T10:15:28;5.03;;;3.15;;
47555;SDS011;33291;46.222;26.460;2024-03-22T10:17:56;8.00;;;4.07;;
47555;SDS011;33291;46.222;26.460;2024-03-22T10:20:22;5.18;;;3.15;;
47555;SDS011;33291;46.222;26.460;2024-03-22T10:22:48;5.13;;;2.30;;
47555;SDS011;33291;46.222;26.460;2024-03-22T10:25:20;7.32;;;3.00;;
47555;SDS011;33291;46.222;26.460;2024-03-22T10:27:48;5.28;;;3.10;;
47555;SDS011;33291;46.222;26.460;2024-03-22T10:30:14;6.80;;;3.20;;
47555;SDS011;33291;46.222;26.460;2024-03-22T10:32:44;5.32;;;3.13;;
47555;SDS011;33291;46.222;26.460;2024-03-22T10:35:13;3.65;;;2.60;;
47555;SDS011;33291;46.222;26.460;2024-03-22T10:37:39;4.53;;;2.90;;
47555;SDS011;33291;46.222;26.460;2024-03-22T10:40:06;3.67;;;2.63;;
47555;SDS011;33291;46.222;26.460;2024-03-22T10:42:37;4.80;;;2.75;;
47555;SDS011;33291;46.222;26.460;2024-03-22T10:45:07;7.50;;;2.85;;
47555;SDS011;33291;46.222;26.460;2024-03-22T10:47:34;3.45;;;2.10;;
47555;SDS011;33291;46.222;26.460;2024-03-22T10:50:05;4.22;;;2.83;;
47555;SDS011;33291;46.222;26.460;2024-03-22T10:52:44;6.90;;;3.20;;
47555;SDS011;33291;46.222;26.460;2024-03-22T10:55:15;6.97;;;3.47;;
47555;SDS011;33291;46.222;26.460;2024-03-22T10:57:47;5.68;;;2.90;;
47555;SDS011;33291;46.222;26.460;2024-03-22T11:00:13;6.22;;;2.90;;
47555;SDS011;33291;46.222;26.460;2024-03-22T11:02:43;5.10;;;3.50;;
47555;SDS011;33291;46.222;26.460;2024-03-22T11:05:18;4.68;;;3.10;;
47555;SDS011;33291;46.222;26.460;2024-03-22T11:07:44;6.35;;;3.25;;
47555;SDS011;33291;46.222;26.460;2024-03-22T11:10:11;5.07;;;2.70;;
47555;SDS011;33291;46.222;26.460;2024-03-22T11:12:37;2.72;;;1.92;;
47555;SDS011;33291;46.222;26.460;2024-03-22T11:15:07;4.47;;;2.50;;
47555;SDS011;33291;46.222;26.460;2024-03-22T11:17:37;4.68;;;2.53;;
47555;SDS011;33291;46.222;26.460;2024-03-22T11:20:03;7.93;;;3.65;;
47555;SDS011;33291;46.222;26.460;2024-03-22T11:22:29;3.60;;;2.60;;
47555;SDS011;33291;46.222;26.460;2024-03-22T11:24:55;9.00;;;3.55;;
47555;SDS011;33291;46.222;26.460;2024-03-22T11:27:20;5.82;;;3.17;;
47555;SDS011;33291;46.222;26.460;2024-03-22T11:29:46;5.00;;;3.42;;
47555;SDS011;33291;46.222;26.460;2024-03-22T11:32:12;4.90;;;3.28;;
47555;SDS011;33291;46.222;26.460;2024-03-22T11:34:40;5.57;;;3.42;;
47555;SDS011;33291;46.222;26.460;2024-03-22T11:37:06;5.57;;;3.55;;
47555;SDS011;33291;46.222;26.460;2024-03-22T11:39:36;6.05;;;2.83;;
47555;SDS011;33291;46.222;26.460;2024-03-22T11:42:04;4.82;;;2.63;;
47555;SDS011;33291;46.222;26.460;2024-03-22T11:44:31;5.30;;;2.55;;
47555;SDS011;33291;46.222;26.460;2024-03-22T11:46:58;4.82;;;3.17;;
47555;SDS011;33291;46.222;26.460;2024-03-22T11:49:24;4.60;;;2.85;;
47555;SDS011;33291;46.222;26.460;2024-03-22T11:51:51;7.47;;;4.40;;
47555;SDS011;33291;46.222;26.460;2024-03-22T11:54:20;6.97;;;3.42;;
47555;SDS011;33291;46.222;26.460;2024-03-22T11:56:46;5.45;;;3.28;;
47555;SDS011;33291;46.222;26.460;2024-03-22T11:59:12;4.38;;;2.53;;
47555;SDS011;33291;46.222;26.460;2024-03-22T12:01:38;5.68;;;3.65;;
47555;SDS011;33291;46.222;26.460;2024-03-22T12:04:04;6.20;;;3.17;;
47555;SDS011;33291;46.222;26.460;2024-03-22T12:06:29;13.73;;;7.13;;
47555;SDS011;33291;46.222;26.460;2024-03-22T12:08:55;6.85;;;3.92;;
47555;SDS011;33291;46.222;26.460;2024-03-22T12:11:21;8.02;;;3.65;;
47555;SDS011;33291;46.222;26.460;2024-03-22T12:13:47;5.15;;;2.72;;
47555;SDS011;33291;46.222;26.460;2024-03-22T12:16:12;6.53;;;3.47;;
47555;SDS011;33291;46.222;26.460;2024-03-22T12:18:38;4.70;;;2.63;;
47555;SDS011;33291;46.222;26.460;2024-03-22T12:21:04;4.65;;;2.88;;
47555;SDS011;33291;46.222;26.460;2024-03-22T12:23:29;4.53;;;3.42;;
47555;SDS011;33291;46.222;26.460;2024-03-22T12:25:55;5.00;;;3.40;;
47555;SDS011;33291;46.222;26.460;2024-03-22T12:28:21;4.70;;;2.92;;
47555;SDS011;33291;46.222;26.460;2024-03-22T12:30:47;5.28;;;2.90;;
47555;SDS011;33291;46.222;26.460;2024-03-22T12:33:14;5.68;;;3.17;;
47555;SDS011;33291;46.222;26.460;2024-03-22T12:35:40;4.63;;;2.83;;
47555;SDS011;33291;46.222;26.460;2024-03-22T12:38:06;4.40;;;2.70;;
47555;SDS011;33291;46.222;26.460;2024-03-22T12:40:35;5.90;;;2.65;;
47555;SDS011;33291;46.222;26.460;2024-03-22T12:43:02;3.72;;;2.45;;
47555;SDS011;33291;46.222;26.460;2024-03-22T12:45:28;5.65;;;2.85;;
47555;SDS011;33291;46.222;26.460;2024-03-22T12:47:54;6.70;;;3.33;;
47555;SDS011;33291;46.222;26.460;2024-03-22T12:50:19;5.97;;;3.35;;
47555;SDS011;33291;46.222;26.460;2024-03-22T12:52:45;6.88;;;4.03;;
47555;SDS011;33291;46.222;26.460;2024-03-22T12:55:11;3.92;;;2.55;;
47555;SDS011;33291;46.222;26.460;2024-03-22T12:57:36;6.75;;;2.95;;
47555;SDS011;33291;46.222;26.460;2024-03-22T13:00:02;6.18;;;3.42;;
47555;SDS011;33291;46.222;26.460;2024-03-22T13:02:38;4.75;;;2.50;;
47555;SDS011;33291;46.222;26.460;2024-03-22T13:05:04;4.13;;;3.00;;
47555;SDS011;33291;46.222;26.460;2024-03-22T13:07:30;6.13;;;2.58;;
47555;SDS011;33291;46.222;26.460;2024-03-22T13:09:56;3.67;;;2.55;;
47555;SDS011;33291;46.222;26.460;2024-03-22T13:12:22;3.17;;;2.30;;
47555;SDS011;33291;46.222;26.460;2024-03-22T13:14:47;3.92;;;2.72;;
47555;SDS011;33291;46.222;26.460;2024-03-22T13:17:13;3.38;;;2.33;;
47555;SDS011;33291;46.222;26.460;2024-03-22T13:19:38;3.22;;;2.25;;
47555;SDS011;33291;46.222;26.460;2024-03-22T13:22:04;5.35;;;2.70;;
47555;SDS011;33291;46.222;26.460;2024-03-22T13:24:30;5.32;;;2.50;;
47555;SDS011;33291;46.222;26.460;2024-03-22T13:26:55;5.93;;;2.75;;
47555;SDS011;33291;46.222;26.460;2024-03-22T13:29:21;3.63;;;2.45;;
47555;SDS011;33291;46.222;26.460;2024-03-22T13:31:47;3.38;;;2.40;;
47555;SDS011;33291;46.222;26.460;2024-03-22T13:34:13;4.80;;;2.92;;
47555;SDS011;33291;46.222;26.460;2024-03-22T13:36:38;3.70;;;2.50;;
47555;SDS011;33291;46.222;26.460;2024-03-22T13:39:04;6.10;;;2.72;;
47555;SDS011;33291;46.222;26.460;2024-03-22T13:41:30;4.70;;;2.30;;
47555;SDS011;33291;46.222;26.460;2024-03-22T13:43:55;5.75;;;3.30;;
47555;SDS011;33291;46.222;26.460;2024-03-22T13:46:21;7.60;;;3.45;;
47555;SDS011;33291;46.222;26.460;2024-03-22T13:48:47;6.53;;;3.55;;
47555;SDS011;33291;46.222;26.460;2024-03-22T13:51:13;6.63;;;4.07;;
47555;SDS011;33291;46.222;26.460;2024-03-22T13:53:38;4.32;;;3.00;;
47555;SDS011;33291;46.222;26.460;2024-03-22T13:56:04;5.75;;;3.90;;
47555;SDS011;33291;46.222;26.460;2024-03-22T13:58:30;8.68;;;4.28;;
47555;SDS011;33291;46.222;26.460;2024-03-22T14:00:55;6.78;;;3.60;;
47555;SDS011;33291;46.222;26.460;2024-03-22T14:03:21;7.57;;;3.60;;
47555;SDS011;33291;46.222;26.460;2024-03-22T14:05:47;6.00;;;3.25;;
47555;SDS011;33291;46.222;26.460;2024-03-22T14:08:13;6.32;;;3.50;;
47555;SDS011;33291;46.222;26.460;2024-03-22T14:10:39;4.13;;;2.70;;
47555;SDS011;33291;46.222;26.460;2024-03-22T14:13:04;8.05;;;4.15;;
47555;SDS011;33291;46.222;26.460;2024-03-22T14:15:33;8.35;;;3.60;;
47555;SDS011;33291;46.222;26.460;2024-03-22T14:18:00;5.85;;;4.18;;
47555;SDS011;33291;46.222;26.460;2024-03-22T14:20:25;10.07;;;5.47;;
47555;SDS011;33291;46.222;26.460;2024-03-22T14:22:51;11.57;;;7.80;;